createdAt,value
2024-03-06T00:01:48.787Z,6.60
2024-03-06T00:04:20.094Z,6.60
2024-03-06T00:06:52.572Z,6.60
2024-03-06T00:09:20.749Z,6.60
2024-03-06T00:11:48.890Z,6.60
2024-03-06T00:14:16.909Z,6.60
2024-03-06T00:16:45.311Z,6.60
2024-03-06T00:19:13.274Z,6.60
2024-03-06T00:21:41.251Z,6.60
2024-03-06T00:24:10.706Z,6.60
2024-03-06T00:26:38.690Z,6.60
2024-03-06T00:29:06.808Z,6.60
2024-03-06T00:31:34.799Z,6.60
2024-03-06T00:34:02.713Z,6.60
2024-03-06T00:36:30.756Z,6.60
2024-03-06T00:38:58.719Z,6.50
2024-03-06T00:41:28.898Z,6.50
2024-03-06T00:43:56.901Z,6.50
2024-03-06T00:46:25.620Z,6.50
2024-03-06T00:48:53.654Z,6.50
2024-03-06T00:51:32.428Z,6.40
2024-03-06T00:54:05.724Z,6.40
2024-03-06T00:56:39.402Z,6.50
2024-03-06T00:59:07.701Z,6.40
2024-03-06T01:01:35.881Z,6.50
2024-03-06T01:04:03.881Z,6.50
2024-03-06T01:06:31.842Z,6.50
2024-03-06T01:08:59.901Z,6.50
2024-03-06T01:11:28.454Z,6.60
2024-03-06T01:13:57.851Z,6.60
2024-03-06T01:16:25.811Z,6.60
2024-03-06T01:18:53.905Z,6.60
2024-03-06T01:21:22.008Z,6.60
2024-03-06T01:23:49.974Z,6.60
2024-03-06T01:26:18.780Z,6.50
2024-03-06T01:28:46.801Z,6.50
2024-03-06T01:31:16.172Z,6.50
2024-03-06T01:33:44.111Z,6.50
2024-03-06T01:36:12.084Z,6.60
2024-03-06T01:38:40.512Z,6.50
2024-03-06T01:41:09.161Z,6.60
2024-03-06T01:43:40.518Z,6.60
2024-03-06T01:46:08.589Z,6.70
2024-03-06T01:48:38.608Z,6.70
2024-03-06T01:51:06.880Z,6.70
2024-03-06T01:53:35.381Z,6.70
2024-03-06T01:56:05.090Z,6.60
2024-03-06T01:58:35.078Z,6.70
2024-03-06T02:01:03.701Z,6.60
2024-03-06T02:03:33.872Z,6.60
2024-03-06T02:06:04.594Z,6.60
2024-03-06T02:08:33.439Z,6.60
2024-03-06T02:11:03.521Z,6.60
2024-03-06T02:13:31.862Z,6.60
2024-03-06T02:15:59.861Z,6.60
2024-03-06T02:18:27.945Z,6.60
2024-03-06T02:20:56.623Z,6.60
2024-03-06T02:23:24.706Z,6.60
2024-03-06T02:25:53.000Z,6.70
2024-03-06T02:28:21.039Z,6.70
2024-03-06T02:30:52.202Z,6.80
2024-03-06T02:33:20.950Z,6.80
2024-03-06T02:35:49.092Z,6.60
2024-03-06T02:38:18.640Z,6.60
2024-03-06T02:40:46.670Z,6.50
2024-03-06T02:43:14.582Z,6.20
2024-03-06T02:45:42.527Z,6.00
2024-03-06T02:48:11.645Z,5.60
2024-03-06T02:50:40.011Z,5.40
2024-03-06T02:53:08.367Z,5.30
2024-03-06T02:55:38.411Z,5.40
2024-03-06T02:58:06.439Z,5.30
2024-03-06T03:00:34.401Z,5.30
2024-03-06T03:03:02.416Z,5.20
2024-03-06T03:05:29.415Z,5.10
2024-03-06T03:07:57.425Z,5.00
2024-03-06T03:10:25.985Z,5.00
2024-03-06T03:12:55.948Z,5.00
2024-03-06T03:15:23.883Z,5.10
2024-03-06T03:17:51.853Z,5.10
2024-03-06T03:20:19.984Z,5.00
2024-03-06T03:22:48.088Z,5.00
2024-03-06T03:25:16.246Z,4.90
2024-03-06T03:27:44.910Z,4.90
2024-03-06T03:30:14.608Z,5.00
2024-03-06T03:32:42.617Z,4.90
2024-03-06T03:35:10.758Z,4.90
2024-03-06T03:37:38.804Z,5.00
2024-03-06T03:40:08.371Z,5.10
2024-03-06T03:42:36.759Z,5.20
2024-03-06T03:45:05.528Z,5.10
2024-03-06T03:47:35.040Z,5.10
2024-03-06T03:50:10.028Z,5.10
2024-03-06T03:52:42.908Z,5.20
2024-03-06T03:55:11.888Z,5.30
2024-03-06T03:57:39.921Z,5.20
2024-03-06T04:00:12.315Z,5.30
2024-03-06T04:02:42.139Z,5.20
2024-03-06T04:05:11.855Z,5.10
2024-03-06T04:07:40.032Z,5.10
2024-03-06T04:10:12.151Z,5.00
2024-03-06T04:12:40.942Z,4.90
2024-03-06T04:15:09.863Z,4.90
2024-03-06T04:17:38.502Z,5.00
2024-03-06T04:20:09.053Z,4.90
2024-03-06T04:22:37.523Z,4.80
2024-03-06T04:25:06.290Z,4.70
2024-03-06T04:27:34.944Z,4.50
2024-03-06T04:30:03.042Z,4.50
2024-03-06T04:32:31.082Z,4.60
2024-03-06T04:34:59.756Z,4.70
2024-03-06T04:37:30.725Z,4.80
2024-03-06T04:39:58.892Z,4.80
2024-03-06T04:42:26.837Z,4.70
2024-03-06T04:44:54.733Z,4.70
2024-03-06T04:47:22.675Z,4.60
2024-03-06T04:49:51.195Z,4.50
2024-03-06T04:52:19.238Z,4.50
2024-03-06T04:54:48.660Z,4.50
2024-03-06T04:57:16.645Z,4.50
2024-03-06T04:59:44.526Z,4.40
2024-03-06T05:02:12.547Z,4.40
2024-03-06T06:00:00.914Z,3.90
2024-03-06T06:02:28.853Z,3.80
2024-03-06T06:05:11.450Z,3.70
2024-03-06T06:07:44.807Z,3.60
2024-03-06T06:10:12.888Z,3.60
2024-03-06T06:12:40.805Z,3.70
2024-03-06T06:15:11.765Z,3.70
2024-03-06T06:17:39.875Z,3.80
2024-03-06T06:20:10.965Z,4.00
2024-03-06T06:22:39.355Z,4.10
2024-03-06T06:25:08.491Z,4.20
2024-03-06T06:27:36.578Z,4.20
2024-03-06T06:30:06.954Z,4.30
2024-03-06T06:32:37.238Z,4.20
2024-03-06T06:35:06.647Z,4.10
2024-03-06T06:37:35.282Z,4.10
2024-03-06T06:40:08.164Z,4.10
2024-03-06T06:42:37.174Z,4.10
2024-03-06T06:45:07.691Z,4.00
2024-03-06T06:47:37.589Z,4.00
2024-03-06T06:50:07.347Z,4.00
2024-03-06T06:52:35.804Z,4.00
2024-03-06T06:55:05.062Z,4.10
2024-03-06T06:57:34.031Z,4.10
2024-03-06T07:00:04.037Z,4.10
2024-03-06T07:02:32.105Z,4.00
2024-03-06T07:05:01.506Z,3.90
2024-03-06T07:07:29.548Z,3.80
2024-03-06T07:09:57.737Z,3.80
2024-03-06T07:12:26.521Z,3.90
2024-03-06T07:14:54.521Z,3.80
2024-03-06T07:17:22.528Z,3.70
2024-03-06T07:19:50.712Z,3.50
2024-03-06T07:22:20.151Z,3.60
2024-03-06T07:24:48.140Z,3.50
2024-03-06T07:27:16.157Z,3.60
2024-03-06T07:29:44.160Z,3.80
2024-03-06T07:32:12.301Z,3.80
2024-03-06T07:34:40.301Z,3.80
2024-03-06T07:37:08.258Z,3.80
2024-03-06T07:39:37.640Z,3.90
2024-03-06T07:42:06.207Z,4.00
2024-03-06T07:44:36.614Z,4.10
2024-03-06T07:47:04.757Z,4.20
2024-03-06T07:49:33.153Z,4.30
2024-03-06T07:52:01.142Z,4.30
2024-03-06T07:54:29.084Z,4.40
2024-03-06T07:56:58.416Z,4.50
2024-03-06T07:59:26.646Z,4.50
2024-03-06T08:01:55.959Z,4.40
2024-03-06T08:04:24.408Z,4.40
2024-03-06T08:06:52.324Z,4.40
2024-03-06T08:09:21.030Z,4.40
2024-03-06T08:11:50.246Z,4.50
2024-03-06T08:14:19.640Z,4.50
2024-03-06T08:16:47.732Z,4.40
2024-03-06T08:19:16.112Z,4.30
2024-03-06T08:21:44.056Z,4.20
2024-03-06T08:24:12.105Z,4.20
2024-03-06T08:26:40.130Z,4.20
2024-03-06T08:29:08.241Z,4.10
2024-03-06T08:31:37.605Z,4.10
2024-03-06T08:34:06.313Z,4.20
2024-03-06T08:36:34.696Z,4.20
2024-03-06T08:39:02.662Z,4.40
2024-03-06T08:41:30.707Z,4.20
2024-03-06T08:43:58.769Z,4.20
2024-03-06T08:46:27.008Z,4.10
2024-03-06T08:48:56.483Z,4.20
2024-03-06T08:51:24.788Z,4.40
2024-03-06T08:53:52.797Z,4.40
2024-03-06T08:56:20.921Z,4.50
2024-03-06T08:58:48.959Z,4.50
2024-03-06T09:01:17.000Z,4.40
2024-03-06T09:03:44.939Z,4.30
2024-03-06T09:06:14.297Z,4.40
2024-03-06T09:08:42.278Z,4.50
2024-03-06T09:11:10.276Z,4.50
2024-03-06T09:13:38.884Z,4.60
2024-03-06T09:16:07.416Z,4.70
2024-03-06T09:18:35.436Z,4.80
2024-03-06T09:21:03.937Z,4.90
2024-03-06T09:23:34.208Z,5.40
2024-03-06T09:26:02.878Z,5.00
2024-03-06T09:28:30.907Z,5.00
2024-03-06T09:30:59.154Z,4.90
2024-03-06T09:33:27.191Z,4.90
2024-03-06T09:35:55.313Z,4.90
2024-03-06T09:38:23.396Z,5.00
2024-03-06T09:40:53.200Z,5.00
2024-03-06T09:43:21.149Z,5.00
2024-03-06T09:45:50.811Z,4.90
2024-03-06T09:48:22.944Z,4.80
2024-03-06T09:50:51.573Z,4.80
2024-03-06T09:53:20.988Z,5.00
2024-03-06T09:55:50.236Z,5.10
2024-03-06T09:58:20.234Z,5.10
2024-03-06T10:00:49.100Z,5.10
2024-03-06T10:03:17.653Z,5.10
2024-03-06T10:05:46.188Z,5.10
2024-03-06T10:08:17.700Z,4.90
2024-03-06T10:10:47.183Z,4.90
2024-03-06T10:13:15.240Z,5.00
2024-03-06T10:15:44.684Z,4.90
2024-03-06T10:18:14.590Z,5.10
2024-03-06T10:20:45.613Z,5.00
2024-03-06T10:23:14.317Z,4.80
2024-03-06T10:25:44.950Z,4.70
2024-03-06T10:28:14.123Z,4.60
2024-03-06T10:30:45.137Z,4.70
2024-03-06T10:33:14.432Z,4.90
2024-03-06T10:35:43.692Z,5.00
2024-03-06T10:38:13.078Z,5.10
2024-03-06T10:40:42.591Z,5.20
2024-03-06T10:43:11.544Z,5.30
2024-03-06T10:45:46.194Z,5.30
2024-03-06T10:48:15.122Z,5.20
2024-03-06T10:50:45.621Z,5.30
2024-03-06T10:53:16.655Z,5.30
2024-03-06T10:55:47.076Z,5.50
2024-03-06T10:58:15.393Z,5.60
2024-03-06T11:00:47.319Z,5.50
2024-03-06T11:03:18.026Z,5.50
2024-03-06T11:05:48.641Z,5.50
2024-03-06T11:08:18.754Z,5.50
2024-03-06T11:10:47.224Z,5.60
2024-03-06T11:13:27.011Z,5.60
2024-03-06T11:16:00.399Z,5.50
2024-03-06T11:18:44.683Z,5.40
2024-03-06T11:21:32.537Z,5.30
2024-03-06T11:24:23.655Z,5.30
2024-03-06T11:26:53.222Z,5.40
2024-03-06T11:29:22.432Z,5.50
2024-03-06T11:32:09.898Z,5.50
2024-03-06T11:34:39.243Z,5.50
2024-03-06T11:37:11.142Z,5.60
2024-03-06T11:39:42.569Z,5.70
2024-03-06T11:42:11.081Z,5.70
2024-03-06T11:44:39.213Z,5.60
2024-03-06T11:47:10.824Z,5.60
2024-03-06T11:49:39.828Z,5.60
2024-03-06T11:52:10.100Z,5.70
2024-03-06T11:54:38.546Z,5.70
2024-03-06T11:57:07.453Z,5.80
2024-03-06T11:59:36.617Z,5.80
2024-03-06T12:02:06.849Z,5.80
2024-03-06T12:04:39.467Z,5.70
2024-03-06T12:07:08.337Z,5.70
2024-03-06T12:09:41.111Z,5.70
2024-03-06T12:12:12.148Z,5.80
2024-03-06T12:14:41.864Z,5.80
2024-03-06T12:17:15.665Z,5.90
2024-03-06T12:19:46.487Z,5.90
2024-03-06T12:22:15.767Z,5.90
2024-03-06T12:24:43.965Z,5.80
2024-03-06T12:27:14.015Z,5.90
2024-03-06T12:29:43.294Z,5.90
2024-03-06T12:32:18.327Z,5.80
2024-03-06T12:34:58.454Z,5.90
2024-03-06T12:37:34.234Z,5.90
2024-03-06T12:40:05.398Z,6.00
2024-03-06T12:42:33.627Z,6.10
2024-03-06T12:45:01.700Z,6.00
2024-03-06T12:47:29.818Z,6.00
2024-03-06T12:50:00.424Z,6.10
2024-03-06T12:52:28.528Z,6.00
2024-03-06T12:54:56.488Z,6.10
2024-03-06T12:57:24.429Z,6.10
2024-03-06T12:59:52.472Z,6.00
2024-03-06T13:02:20.547Z,6.00
2024-03-06T13:04:48.651Z,6.00
2024-03-06T13:07:18.066Z,6.00
2024-03-06T13:09:46.074Z,6.00
2024-03-06T13:12:14.052Z,6.00
2024-03-06T13:14:42.414Z,6.00
2024-03-06T13:17:10.514Z,6.00
2024-03-06T13:19:38.532Z,6.00
2024-03-06T13:22:08.445Z,6.00
2024-03-06T13:24:42.258Z,6.00
2024-03-06T13:27:12.176Z,6.00
2024-03-06T13:29:40.758Z,6.00
2024-03-06T13:32:09.019Z,6.10
2024-03-06T13:34:37.008Z,6.20
2024-03-06T13:37:07.577Z,6.10
2024-03-06T13:39:35.631Z,6.20
2024-03-06T13:42:07.008Z,6.20
2024-03-06T13:44:35.340Z,6.20
2024-03-06T13:47:03.592Z,6.20
2024-03-06T13:49:39.325Z,6.20
2024-03-06T13:52:08.236Z,6.10
2024-03-06T13:54:36.384Z,6.10
2024-03-06T13:57:05.893Z,6.00
2024-03-06T13:59:34.123Z,5.90
2024-03-06T14:02:02.502Z,5.90
2024-03-06T14:04:30.682Z,5.90
2024-03-06T14:06:59.740Z,6.00
2024-03-06T14:09:28.243Z,6.00
2024-03-06T14:11:56.410Z,6.00
2024-03-06T14:14:25.795Z,6.00
2024-03-06T14:16:53.900Z,6.10
2024-03-06T14:19:22.741Z,6.10
2024-03-06T14:21:50.958Z,6.00
2024-03-06T14:24:19.681Z,5.70
2024-03-06T14:26:49.445Z,5.60
2024-03-06T14:29:17.586Z,5.50
2024-03-06T14:31:46.909Z,5.30
2024-03-06T14:34:15.253Z,5.30
2024-03-06T14:36:43.563Z,5.40
2024-03-06T14:39:12.427Z,5.60
2024-03-06T14:41:40.491Z,5.60
2024-03-06T14:44:08.487Z,5.70
2024-03-06T14:46:36.586Z,5.80
2024-03-06T14:49:05.996Z,5.70
2024-03-06T14:51:34.008Z,5.60
2024-03-06T14:54:01.978Z,5.70
2024-03-06T14:56:31.923Z,5.80
2024-03-06T14:59:02.831Z,5.90
2024-03-06T15:01:31.043Z,6.10
2024-03-06T15:03:59.567Z,6.10
2024-03-06T15:06:28.958Z,6.10
2024-03-06T15:08:57.431Z,6.00
2024-03-06T15:11:25.691Z,5.80
2024-03-06T15:13:54.470Z,5.50
2024-03-06T15:16:22.696Z,5.70
2024-03-06T15:18:52.145Z,5.70
2024-03-06T15:21:22.518Z,5.50
2024-03-06T15:23:53.991Z,5.50
2024-03-06T15:26:22.124Z,5.40
2024-03-06T15:28:50.625Z,5.30
2024-03-06T15:31:19.107Z,5.10
2024-03-06T15:33:48.267Z,5.20
2024-03-06T15:36:16.507Z,5.30
2024-03-06T15:38:44.519Z,5.50
2024-03-06T15:41:14.057Z,5.60
2024-03-06T15:43:42.081Z,5.70
2024-03-06T15:46:10.617Z,5.60
2024-03-06T15:48:38.626Z,5.50
2024-03-06T15:51:07.218Z,5.40
2024-03-06T15:53:35.321Z,5.40
2024-03-06T15:56:03.403Z,5.40
2024-03-06T15:58:32.749Z,5.40
2024-03-06T16:01:02.546Z,5.70
2024-03-06T16:03:31.817Z,5.50
2024-03-06T16:06:10.418Z,5.40
2024-03-06T16:08:44.094Z,5.40
2024-03-06T16:11:12.537Z,5.40
2024-03-06T16:13:42.273Z,5.10
2024-03-06T16:16:10.519Z,5.10
2024-03-06T16:18:38.607Z,5.10
2024-03-06T16:21:07.923Z,5.20
2024-03-06T16:23:35.930Z,5.20
2024-03-06T16:26:04.047Z,5.30
2024-03-06T16:28:32.118Z,5.30
2024-03-06T16:31:01.422Z,5.40
2024-03-06T16:33:29.509Z,5.40
2024-03-06T16:35:57.685Z,5.40
2024-03-06T16:38:25.742Z,5.30
2024-03-06T16:40:54.098Z,5.30
2024-03-06T16:43:22.177Z,5.20
2024-03-06T16:45:50.461Z,5.10
2024-03-06T16:48:20.071Z,5.00
2024-03-06T16:50:48.255Z,4.90
2024-03-06T16:53:16.334Z,4.90
2024-03-06T16:55:44.561Z,4.80
2024-03-06T16:58:12.608Z,4.80
2024-03-06T17:00:42.090Z,4.80
2024-03-06T17:03:10.116Z,4.80
2024-03-06T17:05:39.534Z,4.70
2024-03-06T17:08:07.881Z,4.80
2024-03-06T17:10:35.887Z,4.80
2024-03-06T17:13:04.529Z,4.70
2024-03-06T17:15:33.184Z,4.60
2024-03-06T17:18:01.693Z,4.50
2024-03-06T17:20:29.857Z,4.50
2024-03-06T17:22:59.728Z,4.50
2024-03-06T17:25:27.687Z,4.60
2024-03-06T17:27:55.661Z,4.60
2024-03-06T17:30:24.052Z,4.70
2024-03-06T17:32:52.973Z,4.80
2024-03-06T17:35:21.227Z,4.90
2024-03-06T17:37:49.735Z,4.80
2024-03-06T17:40:19.614Z,4.80
2024-03-06T17:42:47.641Z,4.90
2024-03-06T17:45:15.674Z,4.70
2024-03-06T17:47:43.878Z,4.70
2024-03-06T17:50:14.933Z,4.60
2024-03-06T17:52:42.999Z,4.70
2024-03-06T17:55:11.221Z,4.80
2024-03-06T17:57:46.375Z,4.60
2024-03-06T18:00:16.221Z,4.60
2024-03-06T18:02:44.888Z,4.60
2024-03-06T18:05:13.699Z,4.60
2024-03-06T18:07:45.161Z,4.60
2024-03-06T18:10:14.275Z,4.60
2024-03-06T18:12:44.311Z,4.50
2024-03-06T18:15:12.560Z,4.30
2024-03-06T18:17:40.622Z,4.40
2024-03-06T18:20:10.382Z,4.40
2024-03-06T18:22:38.751Z,4.30
2024-03-06T18:25:07.501Z,4.30
2024-03-06T18:27:36.024Z,4.40
2024-03-06T18:30:07.057Z,4.40
2024-03-06T18:32:35.274Z,4.40
2024-03-06T18:35:04.066Z,4.40
2024-03-06T18:37:32.267Z,4.40
2024-03-06T18:40:00.367Z,4.40
2024-03-06T18:42:28.647Z,4.40
2024-03-06T18:45:47.462Z,4.30
2024-03-06T18:48:15.583Z,4.70
2024-03-06T18:50:43.724Z,4.70
2024-03-06T18:53:12.034Z,4.70
2024-03-06T18:55:40.232Z,4.80
2024-03-06T18:58:08.322Z,4.80
2024-03-06T19:00:36.479Z,4.80
2024-03-06T19:03:07.261Z,4.70
2024-03-06T19:05:35.482Z,4.60
2024-03-06T19:08:03.734Z,4.60
2024-03-06T19:10:32.281Z,4.40
2024-03-06T19:13:00.584Z,4.40
2024-03-06T19:15:28.829Z,4.40
2024-03-06T19:17:57.291Z,4.40
2024-03-06T19:20:27.359Z,4.30
2024-03-06T19:22:55.497Z,4.30
2024-03-06T19:25:23.685Z,4.20
2024-03-06T19:27:52.304Z,4.20
2024-03-06T19:30:20.709Z,4.20
2024-03-06T19:32:54.665Z,4.30
2024-03-06T19:35:26.679Z,4.30
2024-03-06T19:37:55.108Z,4.40
2024-03-06T19:40:23.203Z,4.40
2024-03-06T19:42:51.560Z,4.40
2024-03-06T19:45:20.129Z,4.40
2024-03-06T19:47:49.073Z,4.40
2024-03-06T19:50:17.455Z,4.50
2024-03-06T19:52:50.791Z,4.50
2024-03-06T19:55:20.942Z,4.50
2024-03-06T19:57:49.545Z,4.50
2024-03-06T20:00:20.416Z,4.60
2024-03-06T20:02:48.644Z,4.50
2024-03-06T20:05:16.890Z,4.40
2024-03-06T20:07:46.337Z,4.40
2024-03-06T20:10:14.585Z,4.40
2024-03-06T20:12:42.869Z,4.40
2024-03-06T20:15:11.410Z,4.40
2024-03-06T20:17:40.008Z,4.50
2024-03-06T20:20:12.128Z,4.50
2024-03-06T20:22:40.593Z,4.60
2024-03-06T20:25:11.542Z,4.60
2024-03-06T20:27:39.798Z,4.50
2024-03-06T20:30:09.749Z,4.60
2024-03-06T20:32:37.904Z,4.50
2024-03-06T20:35:07.333Z,4.60
2024-03-06T20:37:35.418Z,4.50
2024-03-06T20:40:03.978Z,4.50
2024-03-06T20:42:33.784Z,4.50
2024-03-06T20:45:01.877Z,4.40
2024-03-06T20:47:31.230Z,4.40
2024-03-06T20:49:59.354Z,4.40
2024-03-06T20:52:27.555Z,4.40
2024-03-06T20:54:55.780Z,4.50
2024-03-06T20:57:23.861Z,4.50
2024-03-06T20:59:53.813Z,4.50
2024-03-06T21:02:21.995Z,4.40
2024-03-06T21:04:50.227Z,4.40
2024-03-06T21:07:18.433Z,4.50
2024-03-06T21:09:46.465Z,4.60
2024-03-06T21:12:14.880Z,4.70
2024-03-06T21:14:43.390Z,4.60
2024-03-06T21:17:12.922Z,4.60
2024-03-06T21:19:41.521Z,4.60
2024-03-06T21:22:10.029Z,4.60
2024-03-06T21:24:38.596Z,4.60
2024-03-06T21:27:07.909Z,4.50
2024-03-06T21:29:36.075Z,4.50
2024-03-06T21:32:05.374Z,4.50
2024-03-06T21:34:34.927Z,4.50
2024-03-06T21:37:02.963Z,4.50
2024-03-06T21:39:31.155Z,4.50
2024-03-06T21:41:59.671Z,4.50
2024-03-06T21:44:29.051Z,4.50
2024-03-06T21:46:57.832Z,4.60
2024-03-06T21:49:26.074Z,4.60
2024-03-06T21:51:55.481Z,4.60
2024-03-06T21:54:23.855Z,4.40
2024-03-06T21:56:54.246Z,4.40
2024-03-06T21:59:22.541Z,4.50
2024-03-06T22:01:50.692Z,4.60
2024-03-06T22:04:18.738Z,4.60
2024-03-06T22:06:46.791Z,4.60
2024-03-06T22:09:17.108Z,4.60
2024-03-06T22:11:46.124Z,4.60
2024-03-06T22:14:14.998Z,4.50
2024-03-06T22:16:43.373Z,4.50
2024-03-06T22:19:11.761Z,4.60
2024-03-06T22:21:40.066Z,4.60
2024-03-06T22:24:09.108Z,4.70
2024-03-06T22:26:39.978Z,4.70
2024-03-06T22:29:11.288Z,4.70
2024-03-06T22:31:39.521Z,4.80
2024-03-06T22:34:07.948Z,4.80
2024-03-06T22:36:36.092Z,4.70
2024-03-06T22:39:04.987Z,4.80
2024-03-06T22:41:33.190Z,4.80
2024-03-06T22:44:02.647Z,4.70
2024-03-06T22:46:35.421Z,4.70
2024-03-06T22:49:09.864Z,4.70
2024-03-06T22:51:38.150Z,4.80
2024-03-06T22:54:06.491Z,4.80
2024-03-06T22:56:37.334Z,4.80
2024-03-06T22:59:06.779Z,4.70
2024-03-06T23:01:34.961Z,4.60
2024-03-06T23:04:04.885Z,4.50
2024-03-06T23:06:33.216Z,4.50
2024-03-06T23:09:01.442Z,4.50
2024-03-06T23:11:31.437Z,4.50
2024-03-06T23:13:59.517Z,4.60
2024-03-06T23:16:29.073Z,4.60
2024-03-06T23:18:58.034Z,4.70
2024-03-06T23:21:26.463Z,4.70
2024-03-06T23:23:54.610Z,4.80
2024-03-06T23:26:22.912Z,4.80
2024-03-06T23:28:51.000Z,4.80
2024-03-06T23:31:19.387Z,4.70
2024-03-06T23:33:48.757Z,4.60
2024-03-06T23:36:16.805Z,4.60
2024-03-06T23:38:45.022Z,4.50
2024-03-06T23:41:14.011Z,4.50
2024-03-06T23:43:42.731Z,4.50
2024-03-06T23:46:10.751Z,4.60
2024-03-06T23:48:38.874Z,4.60
2024-03-06T23:51:08.294Z,4.60
2024-03-06T23:53:36.371Z,4.70
2024-03-06T23:56:05.630Z,4.70
2024-03-06T23:58:34.442Z,4.70
